createdAt,value
2016-11-06T00:00:03.360Z,17.92
2016-11-06T00:01:14.566Z,17.95
2016-11-06T00:02:25.324Z,17.92
2016-11-06T00:03:35.999Z,17.89
2016-11-06T00:04:46.689Z,17.92
2016-11-06T00:05:57.376Z,17.79
2016-11-06T00:07:08.075Z,17.87
2016-11-06T00:08:18.793Z,17.84
2016-11-06T00:09:30.009Z,17.89
2016-11-06T00:10:40.675Z,17.85
2016-11-06T00:11:51.760Z,17.99
2016-11-06T00:13:02.423Z,18
2016-11-06T00:14:13.538Z,17.97
2016-11-06T00:15:24.635Z,17.95
2016-11-06T00:16:35.373Z,17.95
2016-11-06T00:17:46.091Z,18.02
2016-11-06T00:18:56.830Z,18
2016-11-06T00:20:07.893Z,17.95
2016-11-06T00:21:19.146Z,17.99
2016-11-06T00:22:29.860Z,18
2016-11-06T00:23:40.669Z,17.95
2016-11-06T00:24:52.878Z,17.99
2016-11-06T00:26:04.348Z,17.97
2016-11-06T00:27:15.068Z,17.94
2016-11-06T00:28:26.023Z,17.99
2016-11-06T00:29:36.720Z,17.95
2016-11-06T00:30:47.782Z,17.99
2016-11-06T00:31:59.014Z,17.95
2016-11-06T00:33:10.592Z,18.09
2016-11-06T00:34:21.336Z,18.03
2016-11-06T00:35:32.868Z,17.95
2016-11-06T00:36:43.996Z,17.99
2016-11-06T00:37:55.094Z,18.02
2016-11-06T00:39:06.630Z,17.94
2016-11-06T00:40:17.301Z,18.02
2016-11-06T00:41:28.353Z,18.06
2016-11-06T00:42:39.782Z,18.04
2016-11-06T00:43:50.931Z,18.07
2016-11-06T00:45:02.009Z,18.07
2016-11-06T00:46:12.789Z,18.06
2016-11-06T00:47:23.832Z,18.13
2016-11-06T00:48:35.358Z,18.07
2016-11-06T00:49:46.063Z,18.07
2016-11-06T00:50:56.842Z,18.1
2016-11-06T00:52:07.584Z,18.07
2016-11-06T00:53:19.471Z,18.18
2016-11-06T00:54:30.191Z,17.97
2016-11-06T00:55:41.738Z,18.12
2016-11-06T00:56:52.539Z,18.17
2016-11-06T00:58:03.641Z,18.04
2016-11-06T00:59:14.747Z,18.1
2016-11-06T01:00:25.407Z,18.13
2016-11-06T01:01:36.449Z,18.1
2016-11-06T01:02:47.563Z,18.19
2016-11-06T01:03:58.240Z,18.06
2016-11-06T01:05:08.881Z,18.13
2016-11-06T01:06:19.637Z,18.15
2016-11-06T01:07:30.341Z,18.12
2016-11-06T01:08:41.053Z,18.1
2016-11-06T01:09:52.199Z,18.07
2016-11-06T01:11:02.922Z,18.07
2016-11-06T01:12:14.036Z,18.13
2016-11-06T01:13:24.733Z,18.02
2016-11-06T01:14:35.980Z,18.1
2016-11-06T01:15:47.128Z,18.09
2016-11-06T01:16:58.258Z,18.13
2016-11-06T01:18:09.003Z,18.1
2016-11-06T01:19:20.417Z,18.04
2016-11-06T01:20:31.206Z,18.07
2016-11-06T01:21:42.378Z,18.09
2016-11-06T01:22:53.127Z,18.09
2016-11-06T01:24:03.841Z,18.06
2016-11-06T01:25:14.543Z,18.06
2016-11-06T01:26:25.237Z,18.13
2016-11-06T01:27:36.308Z,18.07
2016-11-06T01:28:46.962Z,18.03
2016-11-06T01:29:57.681Z,18.12
2016-11-06T01:31:08.378Z,18.07
2016-11-06T01:32:19.823Z,18.1
2016-11-06T01:33:30.524Z,18.09
2016-11-06T01:34:41.606Z,18.07
2016-11-06T01:35:52.263Z,18.07
2016-11-06T01:37:03.794Z,18.07
2016-11-06T01:38:14.631Z,18.07
2016-11-06T01:39:25.312Z,18.09
2016-11-06T01:40:36.806Z,18.12
2016-11-06T01:41:47.523Z,18.06
2016-11-06T01:42:58.223Z,18.06
2016-11-06T01:44:09.337Z,18.04
2016-11-06T01:45:20.844Z,18.04
2016-11-06T01:46:31.511Z,18.09
2016-11-06T01:47:43.051Z,18.02
2016-11-06T01:48:53.796Z,18.04
2016-11-06T01:50:05.008Z,18.03
2016-11-06T01:51:16.041Z,18.13
2016-11-06T01:52:26.774Z,18.13
2016-11-06T01:53:37.855Z,18.1
2016-11-06T01:54:49.340Z,18.12
2016-11-06T01:56:00.769Z,18.07
2016-11-06T01:57:12.554Z,18.02
2016-11-06T01:58:23.764Z,18.04
2016-11-06T01:59:34.487Z,18.07
2016-11-06T02:00:45.215Z,18.03
2016-11-06T02:01:55.894Z,18.24
2016-11-06T02:03:06.630Z,18.07
2016-11-06T02:04:17.355Z,18.12
2016-11-06T02:05:28.434Z,18
2016-11-06T02:06:39.197Z,18.07
2016-11-06T02:07:49.844Z,18.12
2016-11-06T02:09:01.290Z,18.04
2016-11-06T02:10:11.970Z,18.07
2016-11-06T02:11:23.510Z,18.18
2016-11-06T02:12:34.330Z,18.13
2016-11-06T02:13:45.605Z,18.07
2016-11-06T02:14:56.328Z,18.09
2016-11-06T02:16:07.435Z,18.06
2016-11-06T02:17:18.112Z,18.18
2016-11-06T02:18:29.211Z,18.04
2016-11-06T02:19:39.914Z,18.19
2016-11-06T02:20:50.697Z,18.15
2016-11-06T02:22:01.363Z,18.1
2016-11-06T02:23:12.069Z,18.13
2016-11-06T02:24:23.583Z,18.19
2016-11-06T02:25:34.333Z,18.15
2016-11-06T02:26:45.030Z,18.12
2016-11-06T02:27:56.139Z,18.15
2016-11-06T02:29:06.823Z,18.13
2016-11-06T02:30:17.945Z,18.06
2016-11-06T02:31:28.774Z,18.12
2016-11-06T02:32:40.655Z,18.15
2016-11-06T02:33:51.764Z,18.13
2016-11-06T02:35:02.823Z,18.13
2016-11-06T02:36:14.282Z,18.17
2016-11-06T02:37:25.367Z,18.12
2016-11-06T02:38:36.004Z,18.06
2016-11-06T02:39:47.478Z,18.17
2016-11-06T02:40:58.177Z,18.17
2016-11-06T02:42:08.938Z,18.1
2016-11-06T02:43:19.645Z,18.13
2016-11-06T02:44:30.357Z,18.15
2016-11-06T02:45:42.239Z,18.1
2016-11-06T02:46:52.910Z,18.13
2016-11-06T02:48:04.008Z,18.1
2016-11-06T02:49:14.848Z,18.1
2016-11-06T02:50:25.598Z,18.1
2016-11-06T02:51:36.340Z,18.1
2016-11-06T02:52:47.039Z,18.1
2016-11-06T02:53:57.783Z,18.03
2016-11-06T02:55:08.610Z,18.19
2016-11-06T02:56:19.291Z,18.15
2016-11-06T02:57:30.409Z,18.1
2016-11-06T02:58:41.453Z,18.18
2016-11-06T02:59:52.182Z,18.15
2016-11-06T03:01:03.398Z,18.18
2016-11-06T03:02:14.098Z,18.15
2016-11-06T03:03:25.211Z,18.18
2016-11-06T03:04:35.919Z,18.17
2016-11-06T03:05:46.934Z,18.29
2016-11-06T03:06:57.627Z,18.18
2016-11-06T03:08:08.294Z,18.25
2016-11-06T03:09:19.375Z,18.13
2016-11-06T03:10:30.473Z,18.17
2016-11-06T03:11:41.991Z,18.07
2016-11-06T03:12:53.592Z,18.1
2016-11-06T03:14:04.349Z,18.09
2016-11-06T03:15:15.007Z,18.07
2016-11-06T03:16:25.706Z,18.07
2016-11-06T03:17:36.406Z,18.13
2016-11-06T03:18:47.653Z,18.12
2016-11-06T03:19:58.371Z,18.13
2016-11-06T03:21:09.059Z,18.12
2016-11-06T03:22:20.089Z,18.12
2016-11-06T03:23:30.817Z,18.06
2016-11-06T03:24:41.517Z,18.1
2016-11-06T03:25:52.188Z,18.1
2016-11-06T03:27:03.314Z,18.1
2016-11-06T03:28:14.049Z,18.04
2016-11-06T03:29:25.542Z,18.09
2016-11-06T03:30:36.216Z,18.1
2016-11-06T03:31:47.278Z,18.07
2016-11-06T03:32:58.364Z,18.07
2016-11-06T03:34:09.389Z,18.15
2016-11-06T03:35:20.078Z,18.12
2016-11-06T03:36:30.900Z,18.1
2016-11-06T03:37:41.663Z,18.12
2016-11-06T03:38:52.742Z,18.07
2016-11-06T03:40:03.941Z,18.07
2016-11-06T03:41:15.443Z,18.09
2016-11-06T03:42:26.590Z,18.07
2016-11-06T03:43:37.674Z,18.04
2016-11-06T03:44:48.345Z,18.07
2016-11-06T03:45:59.441Z,18.18
2016-11-06T03:47:10.201Z,18.19
2016-11-06T03:48:20.882Z,18.03
2016-11-06T03:49:31.604Z,18.1
2016-11-06T03:50:42.343Z,18
2016-11-06T03:51:53.487Z,18.22
2016-11-06T03:53:04.202Z,18.18
2016-11-06T03:54:15.213Z,18.15
2016-11-06T03:55:26.390Z,18.17
2016-11-06T03:56:37.144Z,18.18
2016-11-06T03:57:48.306Z,18.1
2016-11-06T03:58:59.750Z,18.17
2016-11-06T04:00:10.606Z,18.1
2016-11-06T04:01:22.069Z,18.17
2016-11-06T04:02:33.223Z,18.13
2016-11-06T04:03:43.943Z,18.15
2016-11-06T04:04:54.664Z,18.28
2016-11-06T04:06:05.794Z,18.24
2016-11-06T04:07:16.885Z,18.24
2016-11-06T04:08:27.972Z,18.22
2016-11-06T04:09:39.126Z,18.19
2016-11-06T04:10:50.213Z,18.15
2016-11-06T04:12:01.136Z,18.15
2016-11-06T04:13:11.847Z,18.13
2016-11-06T04:14:22.540Z,18.24
2016-11-06T04:15:34.397Z,18.15
2016-11-06T04:16:45.499Z,18.27
2016-11-06T04:17:56.255Z,18.24
2016-11-06T04:19:06.938Z,18.28
2016-11-06T04:20:18.035Z,18.22
2016-11-06T04:21:29.137Z,18.28
2016-11-06T04:22:39.811Z,18.22
2016-11-06T04:23:51.073Z,18.25
2016-11-06T04:25:02.180Z,18.25
2016-11-06T04:26:12.824Z,18.25
2016-11-06T04:27:23.568Z,18.25
2016-11-06T04:28:34.236Z,18.24
2016-11-06T04:29:45.258Z,18.21
2016-11-06T04:30:55.957Z,18.34
2016-11-06T04:32:07.208Z,18.25
2016-11-06T04:33:18.369Z,18.27
2016-11-06T04:34:29.116Z,18.25
2016-11-06T04:35:40.232Z,18.22
2016-11-06T04:36:50.928Z,18.24
2016-11-06T04:38:02.500Z,18.24
2016-11-06T04:39:13.193Z,18.27
2016-11-06T04:40:23.842Z,18.24
2016-11-06T04:41:34.512Z,18.22
2016-11-06T04:42:45.534Z,18.22
2016-11-06T04:43:57.180Z,18.27
2016-11-06T04:45:08.344Z,18.15
2016-11-06T04:46:18.955Z,18.24
2016-11-06T04:47:30.545Z,18.25
2016-11-06T04:48:41.261Z,18.28
2016-11-06T04:49:51.946Z,18.21
2016-11-06T04:51:03.421Z,18.27
2016-11-06T04:52:14.853Z,18.24
2016-11-06T04:53:26.331Z,18.28
2016-11-06T04:54:37.774Z,18.29
2016-11-06T04:55:49.308Z,18.19
2016-11-06T04:57:00.063Z,18.19
2016-11-06T04:58:11.531Z,18.15
2016-11-06T04:59:22.727Z,18.15
2016-11-06T05:00:33.417Z,18.15
2016-11-06T05:01:44.525Z,18.13
2016-11-06T05:02:55.231Z,18.15
2016-11-06T05:04:06.294Z,18.15
2016-11-06T05:05:17.901Z,18.19
2016-11-06T05:06:28.931Z,18.19
2016-11-06T05:07:39.998Z,18.25
2016-11-06T05:08:50.702Z,18.19
2016-11-06T05:10:01.824Z,18.17
2016-11-06T05:11:13.074Z,18.18
2016-11-06T05:12:24.222Z,18.17
2016-11-06T05:13:35.361Z,18.07
2016-11-06T05:14:46.058Z,18.1
2016-11-06T05:15:57.148Z,18.07
2016-11-06T05:17:08.335Z,18.04
2016-11-06T05:18:19.447Z,17.94
2016-11-06T05:19:30.505Z,17.89
2016-11-06T05:20:41.597Z,17.78
2016-11-06T05:21:53.047Z,17.84
2016-11-06T05:23:04.127Z,17.79
2016-11-06T05:24:14.875Z,17.78
2016-11-06T05:25:25.915Z,17.85
2016-11-06T05:26:36.621Z,17.82
2016-11-06T05:27:47.344Z,17.79
2016-11-06T05:28:58.872Z,17.79
2016-11-06T05:30:09.621Z,17.73
2016-11-06T05:31:20.719Z,17.76
2016-11-06T05:32:31.454Z,17.69
2016-11-06T05:33:42.629Z,17.64
2016-11-06T05:34:53.734Z,17.57
2016-11-06T05:36:04.490Z,17.51
2016-11-06T05:37:15.590Z,17.51
2016-11-06T05:38:26.838Z,17.51
2016-11-06T05:39:37.533Z,17.48
2016-11-06T05:40:48.888Z,17.54
2016-11-06T05:42:00.049Z,17.63
2016-11-06T05:43:11.154Z,17.66
2016-11-06T05:44:22.625Z,17.71
2016-11-06T05:45:33.651Z,17.64
2016-11-06T05:46:44.776Z,17.69
2016-11-06T05:47:55.815Z,17.66
2016-11-06T05:49:06.826Z,17.71
2016-11-06T05:50:17.594Z,17.66
2016-11-06T05:51:28.357Z,17.73
2016-11-06T05:52:39.160Z,17.74
2016-11-06T05:53:50.192Z,17.78
2016-11-06T05:55:00.987Z,17.79
2016-11-06T05:56:11.736Z,17.85
2016-11-06T05:57:23.183Z,17.81
2016-11-06T05:58:34.358Z,17.89
2016-11-06T05:59:45.151Z,17.82
2016-11-06T06:00:56.211Z,17.92
2016-11-06T06:02:07.708Z,17.92
2016-11-06T06:03:18.778Z,17.89
2016-11-06T06:04:30.671Z,17.99
2016-11-06T06:05:41.363Z,17.99
2016-11-06T06:06:52.393Z,18
2016-11-06T06:08:03.463Z,17.99
2016-11-06T06:09:14.501Z,18.02
2016-11-06T06:10:25.344Z,17.97
2016-11-06T06:11:36.101Z,17.97
2016-11-06T06:12:47.620Z,18.03
2016-11-06T06:13:59.066Z,17.92
2016-11-06T06:15:10.124Z,18.02
2016-11-06T06:16:21.696Z,17.94
2016-11-06T06:17:32.350Z,17.89
2016-11-06T06:18:43.083Z,17.99
2016-11-06T06:19:53.824Z,17.89
2016-11-06T06:21:04.529Z,17.91
2016-11-06T06:22:15.247Z,17.87
2016-11-06T06:23:25.968Z,17.85
2016-11-06T06:24:37.006Z,17.79
2016-11-06T06:25:48.123Z,17.76
2016-11-06T06:26:58.865Z,17.76
2016-11-06T06:28:09.558Z,17.71
2016-11-06T06:29:20.644Z,17.63
2016-11-06T06:30:31.800Z,17.63
2016-11-06T06:31:42.909Z,17.69
2016-11-06T06:32:53.981Z,17.62
2016-11-06T06:34:05.136Z,17.59
2016-11-06T06:35:16.263Z,17.57
2016-11-06T06:36:27.011Z,17.57
2016-11-06T06:37:38.450Z,17.55
2016-11-06T06:38:49.903Z,17.57
2016-11-06T06:40:00.653Z,17.53
2016-11-06T06:41:11.290Z,17.57
2016-11-06T06:42:22.421Z,17.5
2016-11-06T06:43:33.879Z,17.46
2016-11-06T06:44:44.601Z,17.44
2016-11-06T06:45:56.146Z,17.5
2016-11-06T06:47:07.719Z,17.54
2016-11-06T06:48:19.217Z,17.47
2016-11-06T06:49:30.309Z,17.51
2016-11-06T06:50:41.416Z,17.51
2016-11-06T06:51:52.469Z,17.38
2016-11-06T06:53:03.230Z,17.41
2016-11-06T06:54:13.935Z,17.41
2016-11-06T06:55:24.633Z,17.46
2016-11-06T06:56:35.357Z,17.43
2016-11-06T06:57:46.175Z,17.53
2016-11-06T06:58:56.858Z,17.4
2016-11-06T07:00:07.528Z,17.44
2016-11-06T07:01:18.251Z,17.55
2016-11-06T07:02:28.977Z,17.57
2016-11-06T07:03:39.648Z,17.66
2016-11-06T07:04:50.389Z,17.57
2016-11-06T07:06:01.434Z,17.67
2016-11-06T07:07:12.143Z,17.7
2016-11-06T07:08:22.937Z,17.74
2016-11-06T07:09:33.801Z,17.71
2016-11-06T07:10:44.956Z,17.73
2016-11-06T07:11:55.622Z,17.81
2016-11-06T07:13:06.840Z,17.71
2016-11-06T07:14:17.535Z,17.71
2016-11-06T07:15:28.222Z,17.76
2016-11-06T07:16:39.330Z,17.7
2016-11-06T07:17:50.106Z,17.73
2016-11-06T07:19:01.253Z,17.7
2016-11-06T07:20:11.926Z,17.78
2016-11-06T07:21:23.126Z,17.69
2016-11-06T07:22:34.208Z,17.57
2016-11-06T07:23:44.938Z,17.55
2016-11-06T07:24:55.675Z,17.62
2016-11-06T07:26:06.359Z,17.59
2016-11-06T07:27:17.072Z,17.66
2016-11-06T07:28:28.374Z,17.62
2016-11-06T07:29:39.089Z,17.63
2016-11-06T07:30:49.817Z,17.59
2016-11-06T07:32:01.283Z,17.76
2016-11-06T07:33:12.480Z,17.64
2016-11-06T07:34:23.586Z,17.71
2016-11-06T07:35:34.667Z,17.7
2016-11-06T07:36:45.396Z,17.71
2016-11-06T07:37:56.006Z,17.82
2016-11-06T07:39:07.062Z,17.74
2016-11-06T07:40:18.166Z,17.78
2016-11-06T07:41:28.914Z,17.79
2016-11-06T07:42:39.639Z,17.82
2016-11-06T07:43:50.721Z,17.84
2016-11-06T07:45:01.577Z,17.87
2016-11-06T07:46:12.687Z,17.85
2016-11-06T07:47:23.741Z,17.85
2016-11-06T07:48:34.530Z,17.89
2016-11-06T07:49:45.280Z,17.91
2016-11-06T07:50:56.048Z,17.88
2016-11-06T07:52:06.739Z,17.94
2016-11-06T07:53:17.780Z,17.91
2016-11-06T07:54:28.882Z,17.91
2016-11-06T07:55:39.932Z,17.89
2016-11-06T07:56:50.850Z,17.92
2016-11-06T07:58:01.937Z,17.92
2016-11-06T07:59:12.619Z,17.92
2016-11-06T08:00:23.762Z,17.92
2016-11-06T08:01:34.457Z,17.92
2016-11-06T08:02:45.552Z,18.04
2016-11-06T08:03:56.301Z,18
2016-11-06T08:05:07.822Z,18.04
2016-11-06T08:06:18.556Z,18.02
2016-11-06T08:07:29.641Z,17.97
2016-11-06T08:08:40.434Z,17.94
2016-11-06T08:09:51.527Z,17.97
2016-11-06T08:11:03.106Z,18.02
2016-11-06T08:12:13.846Z,17.95
2016-11-06T08:13:24.510Z,18.04
2016-11-06T08:14:35.598Z,18.04
2016-11-06T08:15:46.242Z,18.06
2016-11-06T08:16:57.404Z,18.06
2016-11-06T08:18:08.487Z,18.12
2016-11-06T08:19:19.610Z,18
2016-11-06T08:20:30.463Z,18.13
2016-11-06T08:21:41.554Z,18.1
2016-11-06T08:22:52.303Z,18.03
2016-11-06T08:24:03.024Z,18.06
2016-11-06T08:25:14.506Z,18.18
2016-11-06T08:26:25.212Z,18.17
2016-11-06T08:27:36.346Z,18.21
2016-11-06T08:28:47.426Z,18.13
2016-11-06T08:29:58.880Z,18.06
2016-11-06T08:31:09.968Z,18.22
2016-11-06T08:32:20.743Z,18.17
2016-11-06T08:33:31.764Z,18.09
2016-11-06T08:34:42.824Z,18.06
2016-11-06T08:35:53.578Z,18.15
2016-11-06T08:37:05.060Z,18.25
2016-11-06T08:38:15.738Z,18.28
2016-11-06T08:39:26.488Z,18.28
2016-11-06T08:40:37.222Z,18.19
2016-11-06T08:41:49.370Z,18.28
2016-11-06T08:43:00.458Z,18.34
2016-11-06T08:44:11.780Z,18.22
2016-11-06T08:45:22.862Z,18.22
2016-11-06T08:46:33.968Z,18.27
2016-11-06T08:47:45.476Z,18.25
2016-11-06T08:48:56.614Z,18.4
2016-11-06T08:50:07.293Z,18.29
2016-11-06T08:51:18.013Z,18.4
2016-11-06T08:52:29.084Z,18.42
2016-11-06T08:53:39.802Z,18.44
2016-11-06T08:54:50.533Z,18.36
2016-11-06T08:56:01.747Z,18.4
2016-11-06T08:57:12.432Z,18.39
2016-11-06T08:58:23.486Z,18.42
2016-11-06T08:59:34.223Z,18.37
2016-11-06T09:00:44.962Z,18.42
2016-11-06T09:01:55.682Z,18.39
2016-11-06T09:03:06.327Z,18.36
2016-11-06T09:04:17.449Z,18.42
2016-11-06T09:05:28.178Z,18.36
2016-11-06T09:06:39.250Z,18.27
2016-11-06T09:07:50.044Z,18.19
2016-11-06T09:09:00.723Z,18.19
2016-11-06T09:10:11.543Z,18.24
2016-11-06T09:11:22.191Z,18.28
2016-11-06T09:12:32.891Z,18.27
2016-11-06T09:13:43.573Z,18.22
2016-11-06T09:14:55.082Z,18.22
2016-11-06T09:16:05.729Z,18.31
2016-11-06T09:17:16.464Z,18.24
2016-11-06T09:18:27.121Z,18.22
2016-11-06T09:19:37.948Z,18.22
2016-11-06T09:20:49.089Z,18.31
2016-11-06T09:22:00.218Z,18.36
2016-11-06T09:23:10.955Z,18.36
2016-11-06T09:24:21.598Z,18.34
2016-11-06T09:25:32.332Z,18.4
2016-11-06T09:26:43.396Z,18.47
2016-11-06T09:27:54.168Z,18.52
2016-11-06T09:29:04.926Z,18.5
2016-11-06T09:30:16.026Z,18.58
2016-11-06T09:31:27.557Z,18.55
2016-11-06T09:32:38.264Z,18.58
2016-11-06T09:33:49.761Z,18.74
2016-11-06T09:35:01.263Z,18.62
2016-11-06T09:36:12.344Z,18.68
2016-11-06T09:37:22.991Z,18.65
2016-11-06T09:38:34.132Z,18.74
2016-11-06T09:39:45.974Z,18.72
2016-11-06T09:40:56.656Z,18.84
2016-11-06T09:42:07.313Z,18.83
2016-11-06T09:43:18.500Z,18.79
2016-11-06T09:44:29.657Z,18.95
2016-11-06T09:45:43.836Z,18.9
2016-11-06T09:46:54.545Z,18.92
2016-11-06T09:48:05.231Z,18.95
2016-11-06T09:49:15.975Z,18.91
2016-11-06T09:50:27.074Z,18.95
2016-11-06T09:51:38.200Z,18.92
2016-11-06T09:52:49.355Z,18.91
2016-11-06T09:54:00.679Z,18.87
2016-11-06T09:55:11.459Z,18.92
2016-11-06T09:56:22.545Z,18.92
2016-11-06T09:57:33.319Z,19.01
2016-11-06T09:58:43.980Z,18.95
2016-11-06T09:59:55.504Z,19.02
2016-11-06T10:01:06.581Z,19.14
2016-11-06T10:02:18.196Z,19.14
2016-11-06T10:03:29.469Z,19.13
2016-11-06T10:04:41.321Z,19.11
2016-11-06T10:05:52.430Z,19.24
2016-11-06T10:07:03.594Z,19.14
2016-11-06T10:08:14.343Z,19.17
2016-11-06T10:09:25.041Z,19.21
2016-11-06T10:10:36.149Z,19.31
2016-11-06T10:11:46.834Z,19.25
2016-11-06T10:12:58.067Z,19.24
2016-11-06T10:14:08.795Z,19.29
2016-11-06T10:15:19.489Z,19.17
2016-11-06T10:16:30.548Z,19.15
2016-11-06T10:17:42.008Z,19.18
2016-11-06T10:18:53.196Z,19.17
2016-11-06T10:20:03.872Z,19.06
2016-11-06T10:21:15.304Z,18.98
2016-11-06T10:22:25.998Z,19.05
2016-11-06T10:23:36.775Z,19.17
2016-11-06T10:24:47.487Z,19.21
2016-11-06T10:25:58.154Z,19.32
2016-11-06T10:27:08.858Z,19.4
2016-11-06T10:28:19.933Z,19.38
2016-11-06T10:29:31.418Z,19.46
2016-11-06T10:30:42.616Z,19.46
2016-11-06T10:31:53.750Z,19.57
2016-11-06T10:33:04.863Z,19.54
2016-11-06T10:34:15.897Z,19.53
2016-11-06T10:35:26.562Z,19.61
2016-11-06T10:36:37.189Z,19.68
2016-11-06T10:37:48.660Z,19.69
2016-11-06T10:38:59.668Z,19.86
2016-11-06T10:40:10.725Z,19.86
2016-11-06T10:41:21.807Z,19.93
2016-11-06T10:42:32.941Z,20.08
2016-11-06T10:43:44.126Z,20.21
2016-11-06T10:44:54.759Z,20.33
2016-11-06T10:46:05.435Z,20.39
2016-11-06T10:47:16.514Z,20.34
2016-11-06T10:48:27.658Z,20.64
2016-11-06T10:49:38.772Z,21.16
2016-11-06T10:50:49.872Z,21.36
2016-11-06T10:52:01.393Z,21.57
2016-11-06T10:53:12.084Z,21.91
2016-11-06T10:54:23.345Z,22.38
2016-11-06T10:55:34.435Z,22.59
2016-11-06T10:56:45.575Z,23.04
2016-11-06T10:57:56.317Z,23.47
2016-11-06T10:59:07.065Z,24.13
2016-11-06T11:00:17.815Z,24.31
2016-11-06T11:01:28.582Z,23.98
2016-11-06T11:02:40.069Z,23.8
2016-11-06T11:03:50.752Z,23.55
2016-11-06T11:05:01.451Z,23.53
2016-11-06T11:06:12.134Z,24.07
2016-11-06T11:07:22.935Z,24.98
2016-11-06T11:08:33.975Z,25.2
2016-11-06T11:09:45.448Z,25.9
2016-11-06T11:10:56.267Z,25.84
2016-11-06T11:12:06.937Z,25.71
2016-11-06T11:13:17.994Z,25.8
2016-11-06T11:14:28.740Z,25.93
2016-11-06T11:15:39.921Z,26.06
2016-11-06T11:16:51.155Z,26.42
2016-11-06T11:18:01.999Z,27.17
2016-11-06T11:19:12.669Z,27.39
2016-11-06T11:20:23.348Z,27.8
2016-11-06T11:21:34.093Z,28.97
2016-11-06T11:22:45.259Z,29.15
2016-11-06T11:23:56.559Z,29.37
2016-11-06T11:25:07.674Z,29
2016-11-06T11:26:18.444Z,28.51
2016-11-06T11:27:29.250Z,27.84
2016-11-06T11:28:40.039Z,27.33
2016-11-06T11:29:50.815Z,27.16
2016-11-06T11:31:01.959Z,27.06
2016-11-06T11:32:12.676Z,27.01
2016-11-06T11:33:23.447Z,26.57
2016-11-06T11:34:34.972Z,26.04
2016-11-06T11:35:45.645Z,25.93
2016-11-06T11:36:56.732Z,25.87
2016-11-06T11:38:07.829Z,25.86
2016-11-06T11:39:19.311Z,25.77
2016-11-06T11:40:30.019Z,25.91
2016-11-06T11:41:40.854Z,25.65
2016-11-06T11:42:51.577Z,25.47
2016-11-06T11:44:02.631Z,25.5
2016-11-06T11:45:13.362Z,25.31
2016-11-06T11:46:24.113Z,24.92
2016-11-06T11:47:34.819Z,24.42
2016-11-06T11:48:46.744Z,24.01
2016-11-06T11:49:57.876Z,23.68
2016-11-06T11:51:08.608Z,23.46
2016-11-06T11:52:20.665Z,23.46
2016-11-06T11:53:31.354Z,23.45
2016-11-06T11:54:42.111Z,23.32
2016-11-06T11:55:53.204Z,23.38
2016-11-06T11:57:04.232Z,23.42
2016-11-06T11:58:14.976Z,23.57
2016-11-06T11:59:26.172Z,23.39
2016-11-06T12:00:37.217Z,23.45
2016-11-06T12:01:47.869Z,23.5
2016-11-06T12:02:58.628Z,23.65
2016-11-06T12:04:09.674Z,23.38
2016-11-06T12:05:21.253Z,23.32
2016-11-06T12:06:32.067Z,23.26
2016-11-06T12:07:42.803Z,23.38
2016-11-06T12:08:53.527Z,23.5
2016-11-06T12:10:05.069Z,23.31
2016-11-06T12:11:16.144Z,23.35
2016-11-06T12:12:27.265Z,23.4
2016-11-06T12:13:37.952Z,23.43
2016-11-06T12:14:49.540Z,23.32
2016-11-06T12:16:00.249Z,23.34
2016-11-06T12:17:11.405Z,23.46
2016-11-06T12:18:22.096Z,23.55
2016-11-06T12:19:32.847Z,23.86
2016-11-06T12:20:43.554Z,24
2016-11-06T12:21:54.698Z,23.95
2016-11-06T12:23:05.493Z,23.8
2016-11-06T12:24:17.001Z,23.71
2016-11-06T12:25:28.056Z,23.76
2016-11-06T12:26:38.759Z,24.08
2016-11-06T12:27:49.464Z,24.35
2016-11-06T12:29:00.769Z,24.38
2016-11-06T12:30:12.265Z,23.79
2016-11-06T12:31:23.419Z,23.76
2016-11-06T12:32:34.128Z,23.97
2016-11-06T12:33:44.870Z,24.14
2016-11-06T12:34:55.660Z,24.13
2016-11-06T12:36:06.806Z,24.1
2016-11-06T12:37:17.510Z,24.24
2016-11-06T12:38:29.331Z,24.44
2016-11-06T12:39:40.010Z,24.45
2016-11-06T12:40:50.700Z,24.35
2016-11-06T12:42:01.859Z,24.71
2016-11-06T12:43:12.547Z,25.49
2016-11-06T12:44:23.282Z,26.01
2016-11-06T12:45:33.966Z,27.13
2016-11-06T12:46:45.567Z,27.06
2016-11-06T12:47:56.199Z,27.1
2016-11-06T12:49:06.951Z,26.76
2016-11-06T12:50:17.688Z,26.61
2016-11-06T12:51:28.844Z,27.1
2016-11-06T12:52:40.676Z,27.36
2016-11-06T12:53:51.347Z,27.42
2016-11-06T12:55:02.077Z,26.35
2016-11-06T12:56:12.821Z,26.5
2016-11-06T12:57:27.012Z,26.62
2016-11-06T12:58:37.768Z,26.92
2016-11-06T12:59:48.917Z,26.76
2016-11-06T13:00:59.703Z,26.46
2016-11-06T13:02:10.434Z,26.02
2016-11-06T13:03:21.098Z,25.99
2016-11-06T13:04:31.765Z,26.05
2016-11-06T13:05:42.449Z,26.02
2016-11-06T13:06:53.500Z,25.74
2016-11-06T13:08:04.232Z,25.99
2016-11-06T13:09:14.970Z,26.24
2016-11-06T13:10:25.646Z,26.35
2016-11-06T13:11:36.731Z,26.99
2016-11-06T13:12:47.471Z,27.57
2016-11-06T13:13:58.196Z,28.22
2016-11-06T13:15:08.881Z,28.16
2016-11-06T13:16:20.039Z,28.4
2016-11-06T13:17:32.052Z,29.4
2016-11-06T13:18:42.797Z,29.6
2016-11-06T13:19:53.890Z,29.78
2016-11-06T13:21:04.599Z,30.05
2016-11-06T13:22:15.475Z,30.45
2016-11-06T13:23:26.206Z,30.5
2016-11-06T13:24:37.306Z,29.92
2016-11-06T13:25:48.040Z,29.18
2016-11-06T13:26:59.172Z,28.56
2016-11-06T13:28:10.394Z,28.09
2016-11-06T13:29:21.177Z,27.82
2016-11-06T13:30:32.511Z,28.38
2016-11-06T13:31:43.285Z,28.41
2016-11-06T13:32:54.020Z,28.35
2016-11-06T13:34:05.149Z,28.38
2016-11-06T13:35:16.336Z,28.73
2016-11-06T13:36:27.867Z,28.06
2016-11-06T13:37:39.061Z,28.66
2016-11-06T13:38:49.787Z,29.5
2016-11-06T13:40:00.899Z,29.84
2016-11-06T13:41:11.977Z,30.07
2016-11-06T13:42:22.719Z,30.74
2016-11-06T13:43:33.827Z,31.12
2016-11-06T13:44:44.471Z,31.8
2016-11-06T13:45:55.305Z,31.96
2016-11-06T13:47:06.042Z,32.33
2016-11-06T13:48:17.579Z,32.03
2016-11-06T13:49:28.699Z,32.27
2016-11-06T13:50:39.528Z,32.07
2016-11-06T13:51:50.639Z,31.57
2016-11-06T13:53:01.368Z,31.02
2016-11-06T13:54:13.608Z,30.23
2016-11-06T13:55:24.363Z,29.72
2016-11-06T13:56:35.107Z,29.45
2016-11-06T13:57:46.235Z,29.47
2016-11-06T13:58:57.365Z,29.49
2016-11-06T14:00:08.108Z,29.31
2016-11-06T14:01:19.233Z,29.56
2016-11-06T14:02:30.353Z,29.75
2016-11-06T14:03:41.161Z,29.97
2016-11-06T14:04:52.281Z,29.59
2016-11-06T14:06:03.117Z,29.41
2016-11-06T14:07:13.843Z,29.84
2016-11-06T14:08:24.551Z,30.75
2016-11-06T14:09:35.303Z,31.42
2016-11-06T14:10:46.101Z,31.61
2016-11-06T14:11:56.807Z,31.75
2016-11-06T14:13:07.564Z,31.64
2016-11-06T14:14:18.367Z,31.61
2016-11-06T14:15:29.607Z,31.4
2016-11-06T14:16:40.712Z,31.2
2016-11-06T14:17:51.836Z,30.96
2016-11-06T14:19:02.539Z,30.86
2016-11-06T14:20:13.212Z,31.02
2016-11-06T14:21:23.962Z,31.02
2016-11-06T14:22:34.691Z,30.38
2016-11-06T14:23:46.614Z,30.12
2016-11-06T14:24:57.338Z,30.18
2016-11-06T14:26:08.418Z,30.45
2016-11-06T14:27:19.602Z,30.19
2016-11-06T14:28:31.105Z,30.11
2016-11-06T14:29:42.257Z,30.36
2016-11-06T14:30:53.391Z,30.45
2016-11-06T14:32:04.148Z,30.46
2016-11-06T14:33:15.341Z,30.24
2016-11-06T14:34:26.078Z,29.72
2016-11-06T14:35:36.767Z,29.7
2016-11-06T14:36:47.507Z,29.82
2016-11-06T14:37:58.217Z,29.53
2016-11-06T14:39:09.332Z,29.57
2016-11-06T14:40:20.486Z,29.77
2016-11-06T14:41:31.614Z,29.79
2016-11-06T14:42:42.326Z,30.03
2016-11-06T14:43:53.085Z,30.37
2016-11-06T14:45:04.191Z,30.12
2016-11-06T14:46:14.901Z,30.46
2016-11-06T14:47:25.683Z,30.64
2016-11-06T14:48:36.736Z,30.72
2016-11-06T14:49:47.390Z,30.69
2016-11-06T14:50:58.243Z,30.12
2016-11-06T14:52:09.722Z,30.11
2016-11-06T14:53:20.542Z,30.23
2016-11-06T14:54:31.245Z,30.3
2016-11-06T14:55:41.963Z,30.37
2016-11-06T14:56:52.833Z,30.53
2016-11-06T14:58:03.983Z,30.67
2016-11-06T14:59:14.711Z,30.61
2016-11-06T15:00:25.771Z,30.08
2016-11-06T15:01:36.488Z,29.9
2016-11-06T15:02:47.601Z,29.68
2016-11-06T15:03:58.325Z,29.33
2016-11-06T15:05:09.016Z,29.74
2016-11-06T15:06:20.166Z,30.09
2016-11-06T15:07:30.922Z,30.59
2016-11-06T15:08:42.210Z,30.78
2016-11-06T15:09:53.713Z,30.69
2016-11-06T15:11:04.867Z,30.27
2016-11-06T15:12:15.618Z,30.47
2016-11-06T15:13:26.304Z,30.62
2016-11-06T15:14:37.089Z,30.89
2016-11-06T15:15:48.708Z,30.9
2016-11-06T15:16:59.463Z,31.5